Time;durP1;ratioP1;P1;durP2;ratioP2;P2;SDS_P1;SDS_P2;PMS_P1;PMS_P2;Temp;Humidity;BMP_temperature;BMP_pressure;BME280_temperature;BME280_humidity;BME280_pressure;Samples;Min_cycle;Max_cycle;Signal;HPM_P1;HPM_P2
2021/01/18 00:00:28;;;;;;;54.80;26.55;;;;;;;;;;5047766;28;20659;-62
2021/01/18 00:02:55;;;;;;;61.15;27.27;;;;;;;;;;5049061;28;21022;-63
2021/01/18 00:05:21;;;;;;;64.20;29.25;;;;;;;;;;5046093;28;20224;-62
2021/01/18 00:07:51;;;;;;;61.28;27.88;;;;;;;;;;5048834;28;20663;-62
2021/01/18 00:10:19;;;;;;;58.92;27.48;;;;;;;;;;5048494;28;20185;-62
2021/01/18 00:12:46;;;;;;;59.45;28.15;;;;;;;;;;5039219;28;20196;-62
2021/01/18 00:15:13;;;;;;;55.38;27.45;;;;;;;;;;5038586;28;20189;-63
2021/01/18 00:17:40;;;;;;;54.83;26.17;;;;;;;;;;5048461;28;20204;-62
2021/01/18 00:20:08;;;;;;;59.45;27.20;;;;;;;;;;5048026;28;20192;-62
2021/01/18 00:22:36;;;;;;;58.10;27.63;;;;;;;;;;5048535;28;20262;-63
2021/01/18 00:25:04;;;;;;;51.97;26.25;;;;;;;;;;5045412;28;20235;-62
2021/01/18 00:27:30;;;;;;;58.08;28.02;;;;;;;;;;5048656;28;20208;-61
2021/01/18 00:29:58;;;;;;;58.67;27.10;;;;;;;;;;5047835;28;20621;-63
2021/01/18 00:32:24;;;;;;;54.33;26.85;;;;;;;;;;5048404;28;20195;-62
2021/01/18 00:34:50;;;;;;;60.25;29.17;;;;;;;;;;5047940;28;20192;-61
2021/01/18 00:37:17;;;;;;;60.63;28.20;;;;;;;;;;5037208;28;20225;-61
2021/01/18 00:39:44;;;;;;;65.13;30.02;;;;;;;;;;5047507;28;20281;-62
2021/01/18 00:42:16;;;;;;;63.53;30.30;;;;;;;;;;5048214;28;20242;-62
2021/01/18 00:44:42;;;;;;;67.65;32.63;;;;;;;;;;5046089;28;20201;-62
2021/01/18 00:47:12;;;;;;;74.57;33.30;;;;;;;;;;5049306;28;20206;-61
2021/01/18 00:49:39;;;;;;;73.18;33.55;;;;;;;;;;5046283;28;20300;-61
2021/01/18 00:52:05;;;;;;;72.05;33.45;;;;;;;;;;5048462;28;20231;-64
2021/01/18 00:54:33;;;;;;;68.03;32.63;;;;;;;;;;5046580;28;20200;-61
2021/01/18 00:57:12;;;;;;;75.78;34.08;;;;;;;;;;5045295;28;20216;-63
2021/01/18 00:59:41;;;;;;;85.53;37.13;;;;;;;;;;5046905;28;20242;-62
2021/01/18 01:02:08;;;;;;;85.82;38.42;;;;;;;;;;5046818;28;20239;-62
2021/01/18 01:04:36;;;;;;;91.70;40.05;;;;;;;;;;5046142;28;20219;-61
2021/01/18 01:07:03;;;;;;;98.43;41.63;;;;;;;;;;5037164;28;20688;-61
2021/01/18 01:09:29;;;;;;;113.65;45.22;;;;;;;;;;5037194;28;20207;-61
2021/01/18 01:11:55;;;;;;;96.55;42.28;;;;;;;;;;5040400;28;20585;-61
2021/01/18 01:14:21;;;;;;;87.80;37.63;;;;;;;;;;5040692;28;20383;-64
2021/01/18 01:16:48;;;;;;;75.40;34.17;;;;;;;;;;5052057;28;20196;-61
2021/01/18 01:19:14;;;;;;;74.68;31.88;;;;;;;;;;5051588;28;20196;-62
2021/01/18 01:21:47;;;;;;;66.05;30.58;;;;;;;;;;5051665;28;20424;-62
2021/01/18 01:24:13;;;;;;;75.15;32.90;;;;;;;;;;5051130;28;20254;-61
2021/01/18 01:26:39;;;;;;;72.28;31.20;;;;;;;;;;5051293;28;20193;-62
2021/01/18 01:29:05;;;;;;;82.57;32.90;;;;;;;;;;5051489;28;20188;-61
2021/01/18 01:31:32;;;;;;;85.03;35.35;;;;;;;;;;5051557;28;20575;-63
2021/01/18 01:33:58;;;;;;;79.18;35.05;;;;;;;;;;5051412;28;20394;-63
2021/01/18 01:36:24;;;;;;;84.53;33.55;;;;;;;;;;5048083;28;20228;-64
2021/01/18 01:38:50;;;;;;;73.00;32.45;;;;;;;;;;5051635;28;20227;-61
2021/01/18 01:41:17;;;;;;;70.40;31.38;;;;;;;;;;5040019;28;20577;-62
2021/01/18 01:43:43;;;;;;;74.40;31.63;;;;;;;;;;5042328;28;20295;-64
2021/01/18 01:46:10;;;;;;;58.35;26.35;;;;;;;;;;5040463;28;20231;-63
2021/01/18 01:48:36;;;;;;;54.47;25.83;;;;;;;;;;5040566;28;20196;-61
2021/01/18 01:51:02;;;;;;;50.55;23.88;;;;;;;;;;5042479;28;20203;-62
2021/01/18 01:53:29;;;;;;;46.95;22.75;;;;;;;;;;5041283;28;20201;-61
2021/01/18 01:55:57;;;;;;;55.70;24.30;;;;;;;;;;5050844;28;20200;-62
2021/01/18 01:58:25;;;;;;;52.10;24.25;;;;;;;;;;5041828;28;20698;-62
2021/01/18 02:00:52;;;;;;;60.22;25.25;;;;;;;;;;5040900;28;20195;-62
2021/01/18 02:03:29;;;;;;;57.83;26.25;;;;;;;;;;5039669;28;20644;-62
2021/01/18 02:05:56;;;;;;;62.17;27.85;;;;;;;;;;5039685;28;20608;-61
2021/01/18 02:08:23;;;;;;;70.32;31.00;;;;;;;;;;5048465;28;20287;-61
2021/01/18 02:10:49;;;;;;;64.60;30.00;;;;;;;;;;5050157;28;20188;-63
2021/01/18 02:13:18;;;;;;;57.90;26.98;;;;;;;;;;5040003;28;20184;-62
2021/01/18 02:15:50;;;;;;;52.58;24.35;;;;;;;;;;5048227;28;20647;-62
2021/01/18 02:18:23;;;;;;;52.25;25.08;;;;;;;;;;5050844;28;20246;-63
2021/01/18 02:20:49;;;;;;;43.67;21.52;;;;;;;;;;5050198;28;20192;-62
2021/01/18 02:23:33;;;;;;;40.80;19.88;;;;;;;;;;5049825;28;20190;-62
2021/01/18 02:26:03;;;;;;;38.60;18.15;;;;;;;;;;5049562;28;20193;-63
2021/01/18 02:28:38;;;;;;;38.05;17.85;;;;;;;;;;5050629;28;20610;-63
2021/01/18 02:31:13;;;;;;;32.72;15.95;;;;;;;;;;5047723;28;20276;-61
2021/01/18 02:33:39;;;;;;;31.67;15.77;;;;;;;;;;5050627;28;20216;-63
2021/01/18 02:36:15;;;;;;;27.30;14.57;;;;;;;;;;5049263;28;20225;-62
2021/01/18 02:38:54;;;;;;;26.52;14.93;;;;;;;;;;5038874;28;20303;-62
2021/01/18 02:41:22;;;;;;;28.33;13.88;;;;;;;;;;5049779;28;20201;-62
2021/01/18 02:43:50;;;;;;;31.15;15.73;;;;;;;;;;5041052;28;20200;-62
2021/01/18 02:46:19;;;;;;;29.90;14.65;;;;;;;;;;5040875;28;20201;-62
2021/01/18 02:48:46;;;;;;;30.90;14.18;;;;;;;;;;5048061;28;20216;-63
2021/01/18 02:51:15;;;;;;;31.48;15.30;;;;;;;;;;5049244;28;20196;-62
2021/01/18 02:53:53;;;;;;;29.83;14.73;;;;;;;;;;5049842;28;20192;-62
2021/01/18 02:56:20;;;;;;;32.60;16.58;;;;;;;;;;5038564;28;20185;-63
2021/01/18 02:58:47;;;;;;;29.95;16.23;;;;;;;;;;5041155;28;20204;-62
2021/01/18 03:01:21;;;;;;;35.00;16.52;;;;;;;;;;5040641;28;20193;-62
2021/01/18 03:04:02;;;;;;;35.30;17.08;;;;;;;;;;5048635;28;20254;-62
2021/01/18 03:06:44;;;;;;;32.50;16.08;;;;;;;;;;5047631;28;20284;-62
2021/01/18 03:09:18;;;;;;;32.22;16.10;;;;;;;;;;5049645;28;20189;-62
2021/01/18 03:11:48;;;;;;;30.20;16.13;;;;;;;;;;5048945;28;20199;-62
2021/01/18 03:14:26;;;;;;;30.90;15.80;;;;;;;;;;5051903;28;20192;-62
2021/01/18 03:16:55;;;;;;;32.05;15.65;;;;;;;;;;5049145;28;20246;-62
2021/01/18 03:19:29;;;;;;;34.65;15.35;;;;;;;;;;5049148;28;20200;-63
2021/01/18 03:21:56;;;;;;;32.90;15.20;;;;;;;;;;5049929;28;20238;-62
2021/01/18 03:24:22;;;;;;;26.48;14.75;;;;;;;;;;5049089;28;20189;-62
2021/01/18 03:26:49;;;;;;;27.48;13.82;;;;;;;;;;5040008;28;20188;-62
2021/01/18 03:29:15;;;;;;;25.83;13.65;;;;;;;;;;5039568;28;20193;-62
2021/01/18 03:31:42;;;;;;;27.98;14.27;;;;;;;;;;5037713;28;20789;-62
2021/01/18 03:34:08;;;;;;;24.70;12.95;;;;;;;;;;5048996;28;20197;-61
2021/01/18 03:36:34;;;;;;;26.95;13.68;;;;;;;;;;5048481;28;20220;-63
2021/01/18 03:39:00;;;;;;;31.20;15.20;;;;;;;;;;5049435;28;20212;-63
2021/01/18 03:41:26;;;;;;;28.05;13.80;;;;;;;;;;5048776;28;20311;-62
2021/01/18 03:43:53;;;;;;;25.85;13.80;;;;;;;;;;5050004;28;20572;-61
2021/01/18 03:46:19;;;;;;;29.70;14.90;;;;;;;;;;5048815;28;20268;-64
2021/01/18 03:48:45;;;;;;;35.42;17.65;;;;;;;;;;5046567;28;20192;-62
2021/01/18 03:51:11;;;;;;;56.05;24.00;;;;;;;;;;5048731;28;20192;-61
2021/01/18 03:53:38;;;;;;;49.55;24.00;;;;;;;;;;5039468;28;20211;-63
2021/01/18 03:56:04;;;;;;;51.20;25.67;;;;;;;;;;5039577;28;20192;-61
2021/01/18 03:58:30;;;;;;;56.05;25.65;;;;;;;;;;5038463;28;20221;-64
2021/01/18 04:00:56;;;;;;;52.88;25.67;;;;;;;;;;5037765;28;20583;-61
2021/01/18 04:03:23;;;;;;;58.38;26.20;;;;;;;;;;5040078;28;20279;-61
2021/01/18 04:05:49;;;;;;;61.45;28.88;;;;;;;;;;5037454;28;20194;-62
2021/01/18 04:08:16;;;;;;;75.03;31.50;;;;;;;;;;5039047;28;20573;-62
2021/01/18 04:10:43;;;;;;;80.93;35.10;;;;;;;;;;5041314;28;21078;-60
2021/01/18 04:13:09;;;;;;;68.18;31.48;;;;;;;;;;5040530;28;20690;-61
2021/01/18 04:15:35;;;;;;;68.97;32.30;;;;;;;;;;5050148;28;20525;-63
2021/01/18 04:18:03;;;;;;;77.45;32.42;;;;;;;;;;5049139;28;20247;-62
2021/01/18 04:20:30;;;;;;;48.50;23.67;;;;;;;;;;5048947;28;20242;-62
2021/01/18 04:22:57;;;;;;;44.45;21.45;;;;;;;;;;5038791;28;20189;-62
2021/01/18 04:25:24;;;;;;;41.40;19.95;;;;;;;;;;5039214;28;20663;-63
2021/01/18 04:27:58;;;;;;;42.08;20.02;;;;;;;;;;5038181;28;20201;-62
2021/01/18 04:30:25;;;;;;;43.83;20.45;;;;;;;;;;5037106;28;20188;-60
2021/01/18 04:33:11;;;;;;;39.17;19.20;;;;;;;;;;5048669;28;20284;-63
2021/01/18 04:35:38;;;;;;;37.67;19.27;;;;;;;;;;5046104;28;20249;-61
2021/01/18 04:38:05;;;;;;;39.95;19.70;;;;;;;;;;5048505;28;20282;-61
2021/01/18 04:40:32;;;;;;;41.05;19.45;;;;;;;;;;5047776;28;20223;-62
2021/01/18 04:42:58;;;;;;;41.20;19.60;;;;;;;;;;5037898;28;20192;-62
2021/01/18 04:45:26;;;;;;;40.53;20.00;;;;;;;;;;5038825;28;20220;-62
2021/01/18 04:47:54;;;;;;;38.80;18.98;;;;;;;;;;5037613;28;20195;-62
2021/01/18 04:50:21;;;;;;;37.88;18.63;;;;;;;;;;5047424;28;20191;-61
2021/01/18 04:52:49;;;;;;;38.60;19.30;;;;;;;;;;5045602;28;20204;-62
2021/01/18 04:55:24;;;;;;;46.83;22.92;;;;;;;;;;5047895;28;20188;-62
2021/01/18 04:58:05;;;;;;;65.07;29.58;;;;;;;;;;5045507;28;20199;-65
2021/01/18 05:00:40;;;;;;;57.92;29.05;;;;;;;;;;5045431;28;20210;-62
2021/01/18 05:03:07;;;;;;;54.83;28.33;;;;;;;;;;5047266;28;20196;-63
2021/01/18 05:05:37;;;;;;;57.20;27.80;;;;;;;;;;5046986;28;20188;-62
2021/01/18 05:08:04;;;;;;;57.08;27.50;;;;;;;;;;5046925;28;20220;-62
2021/01/18 05:10:31;;;;;;;58.00;27.40;;;;;;;;;;5047012;28;20191;-61
2021/01/18 05:12:59;;;;;;;62.58;28.85;;;;;;;;;;5047679;28;20231;-62
2021/01/18 05:15:26;;;;;;;58.40;27.67;;;;;;;;;;5035956;28;20719;-61
2021/01/18 05:18:05;;;;;;;61.22;28.70;;;;;;;;;;5037628;28;20204;-62
2021/01/18 05:20:32;;;;;;;59.58;28.52;;;;;;;;;;5045275;28;20195;-61
2021/01/18 05:22:58;;;;;;;56.28;28.08;;;;;;;;;;5047885;28;20570;-62
2021/01/18 05:25:24;;;;;;;56.45;28.45;;;;;;;;;;5047417;28;20197;-62
2021/01/18 05:27:58;;;;;;;60.17;28.85;;;;;;;;;;5048037;28;20196;-62
2021/01/18 05:30:25;;;;;;;62.50;31.63;;;;;;;;;;5036396;28;20268;-62
2021/01/18 05:33:01;;;;;;;67.47;32.15;;;;;;;;;;5047402;28;20197;-60
2021/01/18 05:35:28;;;;;;;87.28;39.35;;;;;;;;;;5047155;28;20224;-62
2021/01/18 05:38:02;;;;;;;100.03;45.88;;;;;;;;;;5047666;28;20209;-61
2021/01/18 05:40:33;;;;;;;126.93;53.45;;;;;;;;;;5047386;28;20196;-62
2021/01/18 05:43:01;;;;;;;130.60;58.58;;;;;;;;;;5046348;28;20220;-62
2021/01/18 05:45:28;;;;;;;121.63;55.53;;;;;;;;;;5046933;28;20864;-60
2021/01/18 05:47:55;;;;;;;124.85;55.92;;;;;;;;;;5046869;28;20200;-61
2021/01/18 05:50:23;;;;;;;144.93;60.00;;;;;;;;;;5047027;28;20200;-63
2021/01/18 05:52:49;;;;;;;138.25;58.40;;;;;;;;;;5047576;28;20578;-62
2021/01/18 05:55:16;;;;;;;141.23;59.55;;;;;;;;;;5046920;28;20288;-62
2021/01/18 05:57:47;;;;;;;138.95;56.30;;;;;;;;;;5036196;28;20662;-64
2021/01/18 06:00:22;;;;;;;135.20;54.83;;;;;;;;;;5040096;28;20219;-63
2021/01/18 06:02:49;;;;;;;122.60;51.80;;;;;;;;;;5048089;28;20519;-63
2021/01/18 06:05:22;;;;;;;115.60;46.13;;;;;;;;;;5049465;28;20177;-63
2021/01/18 06:07:49;;;;;;;111.82;43.40;;;;;;;;;;5048710;28;20193;-62
2021/01/18 06:10:16;;;;;;;124.47;45.67;;;;;;;;;;5050754;28;20293;-62
2021/01/18 06:12:42;;;;;;;128.27;47.45;;;;;;;;;;5051186;28;20191;-63
2021/01/18 06:15:10;;;;;;;135.00;49.03;;;;;;;;;;5050790;28;20203;-62
2021/01/18 06:17:43;;;;;;;134.35;49.92;;;;;;;;;;5050479;28;20208;-62
2021/01/18 06:20:17;;;;;;;129.68;49.70;;;;;;;;;;5048464;28;20192;-64
2021/01/18 06:22:48;;;;;;;110.30;47.33;;;;;;;;;;5050600;28;20192;-62
2021/01/18 06:25:15;;;;;;;109.68;45.40;;;;;;;;;;5050376;28;20184;-61
2021/01/18 06:27:42;;;;;;;94.68;40.40;;;;;;;;;;5039869;28;20193;-62
2021/01/18 06:30:25;;;;;;;83.65;37.28;;;;;;;;;;5040833;28;20181;-61
2021/01/18 06:32:52;;;;;;;72.93;31.75;;;;;;;;;;5048089;28;20643;-62
2021/01/18 06:35:25;;;;;;;65.32;30.88;;;;;;;;;;5049414;28;20220;-62
2021/01/18 06:37:56;;;;;;;64.88;30.73;;;;;;;;;;5048973;28;20208;-61
2021/01/18 06:40:26;;;;;;;71.45;31.80;;;;;;;;;;5050343;28;20201;-62
2021/01/18 06:42:53;;;;;;;75.93;34.10;;;;;;;;;;5049807;28;20185;-61
2021/01/18 06:45:20;;;;;;;76.80;34.47;;;;;;;;;;5068418;28;20192;-63
2021/01/18 06:47:46;;;;;;;84.75;37.60;;;;;;;;;;5039190;28;20185;-61
2021/01/18 06:50:13;;;;;;;78.63;37.60;;;;;;;;;;5036856;28;20192;-62
2021/01/18 06:52:45;;;;;;;89.07;38.92;;;;;;;;;;5037622;28;20667;-62
2021/01/18 06:55:16;;;;;;;94.00;42.85;;;;;;;;;;5045806;28;20676;-62
2021/01/18 06:57:43;;;;;;;63.00;29.08;;;;;;;;;;5048240;28;20256;-61
2021/01/18 07:00:11;;;;;;;54.33;26.50;;;;;;;;;;5049049;28;20185;-62
2021/01/18 07:02:38;;;;;;;41.92;18.70;;;;;;;;;;5039918;28;20193;-63
2021/01/18 07:05:06;;;;;;;25.67;13.10;;;;;;;;;;5041204;28;20194;-61
2021/01/18 07:07:33;;;;;;;21.70;9.48;;;;;;;;;;5039916;28;20197;-61
2021/01/18 07:10:00;;;;;;;26.77;12.38;;;;;;;;;;5038958;28;20188;-63
2021/01/18 07:12:27;;;;;;;21.33;11.40;;;;;;;;;;5041186;28;20326;-62
2021/01/18 07:14:57;;;;;;;27.05;11.90;;;;;;;;;;5039085;28;20283;-63
2021/01/18 07:17:42;;;;;;;30.52;14.15;;;;;;;;;;5038817;28;20198;-62
2021/01/18 07:20:20;;;;;;;30.17;11.93;;;;;;;;;;5046779;28;20283;-62
2021/01/18 07:23:19;;;;;;;35.13;10.27;;;;;;;;;;5048704;28;20678;-63
2021/01/18 07:25:47;;;;;;;18.50;9.00;;;;;;;;;;5049658;28;20203;-62
2021/01/18 07:28:17;;;;;;;18.05;9.70;;;;;;;;;;5050061;28;20191;-61
2021/01/18 07:30:43;;;;;;;18.77;9.35;;;;;;;;;;5049433;28;20942;-63
2021/01/18 07:33:14;;;;;;;20.85;10.57;;;;;;;;;;5048237;28;20192;-61
2021/01/18 07:35:41;;;;;;;22.30;10.63;;;;;;;;;;5050308;28;20232;-60
2021/01/18 07:38:11;;;;;;;26.77;12.73;;;;;;;;;;5050315;28;20216;-62
2021/01/18 07:40:38;;;;;;;19.90;9.05;;;;;;;;;;5049441;28;20984;-61
2021/01/18 07:43:04;;;;;;;17.65;9.35;;;;;;;;;;5049431;28;20207;-63
2021/01/18 07:45:31;;;;;;;21.33;11.07;;;;;;;;;;5049872;28;20749;-62
2021/01/18 07:47:57;;;;;;;20.50;10.85;;;;;;;;;;5049536;28;20246;-61
2021/01/18 07:50:32;;;;;;;22.13;10.30;;;;;;;;;;5049281;28;20606;-63
2021/01/18 07:53:09;;;;;;;20.38;11.00;;;;;;;;;;5048484;28;20226;-62
2021/01/18 07:55:36;;;;;;;18.80;10.85;;;;;;;;;;5047024;28;20197;-61
2021/01/18 07:58:12;;;;;;;24.67;11.50;;;;;;;;;;5049109;28;20213;-61
2021/01/18 08:00:39;;;;;;;19.40;10.63;;;;;;;;;;5047539;28;20204;-61
2021/01/18 08:03:08;;;;;;;27.60;12.95;;;;;;;;;;5049224;28;20566;-61
2021/01/18 08:05:36;;;;;;;23.58;12.70;;;;;;;;;;5048880;28;20212;-62
2021/01/18 08:08:03;;;;;;;25.75;12.75;;;;;;;;;;5038422;28;20189;-62
2021/01/18 08:10:48;;;;;;;24.55;12.93;;;;;;;;;;5039587;28;20197;-63
2021/01/18 08:13:31;;;;;;;26.63;13.40;;;;;;;;;;5047750;28;20288;-61
2021/01/18 08:16:17;;;;;;;21.85;11.20;;;;;;;;;;5046650;28;20203;-61
2021/01/18 08:18:50;;;;;;;20.45;10.68;;;;;;;;;;5048495;28;20228;-62
2021/01/18 08:21:35;;;;;;;18.23;9.57;;;;;;;;;;5045188;28;20184;-62
2021/01/18 08:24:04;;;;;;;26.35;12.27;;;;;;;;;;5047138;28;20226;-62
2021/01/18 08:26:49;;;;;;;22.73;11.98;;;;;;;;;;5046427;28;20220;-62
2021/01/18 08:29:51;;;;;;;24.90;12.68;;;;;;;;;;5048335;28;20188;-64
2021/01/18 08:32:56;;;;;;;21.77;11.15;;;;;;;;;;5008699;28;20280;-63
2021/01/18 08:35:29;;;;;;;18.35;10.25;;;;;;;;;;5045939;28;20250;-63
2021/01/18 08:38:07;;;;;;;19.45;9.18;;;;;;;;;;5047799;28;20667;-62
2021/01/18 08:40:41;;;;;;;21.73;9.13;;;;;;;;;;5045726;28;20651;-62
2021/01/18 08:43:08;;;;;;;12.07;5.63;;;;;;;;;;5048083;28;20297;-63
2021/01/18 08:45:35;;;;;;;19.38;9.27;;;;;;;;;;5047880;28;20192;-62
2021/01/18 08:48:03;;;;;;;23.17;11.10;;;;;;;;;;5048227;28;20192;-62
2021/01/18 08:50:35;;;;;;;21.23;9.57;;;;;;;;;;5046595;28;20679;-62
2021/01/18 08:53:20;;;;;;;18.63;9.05;;;;;;;;;;5048296;28;20200;-63
2021/01/18 08:55:47;;;;;;;18.63;8.77;;;;;;;;;;5047360;28;20197;-60
2021/01/18 08:58:13;;;;;;;14.38;8.15;;;;;;;;;;5048491;28;20220;-63
2021/01/18 09:00:43;;;;;;;16.77;8.05;;;;;;;;;;5047638;28;20246;-63
2021/01/18 09:03:10;;;;;;;16.98;8.15;;;;;;;;;;5036940;28;20193;-62
2021/01/18 09:05:37;;;;;;;18.15;8.98;;;;;;;;;;5037577;28;20231;-61
2021/01/18 09:08:06;;;;;;;14.48;7.93;;;;;;;;;;5038593;28;20200;-61
2021/01/18 09:10:33;;;;;;;13.05;6.82;;;;;;;;;;5036524;28;20632;-61
2021/01/18 09:13:01;;;;;;;14.10;7.85;;;;;;;;;;5048688;28;20202;-62
2021/01/18 09:15:27;;;;;;;20.38;8.50;;;;;;;;;;5048003;28;20196;-61
2021/01/18 09:17:54;;;;;;;17.23;7.97;;;;;;;;;;5048250;28;20239;-62
2021/01/18 09:20:21;;;;;;;18.52;9.13;;;;;;;;;;5039933;28;20651;-62
2021/01/18 09:22:48;;;;;;;14.32;7.95;;;;;;;;;;5041605;28;20605;-61
2021/01/18 09:25:16;;;;;;;14.35;7.93;;;;;;;;;;5037295;28;20726;-61
2021/01/18 09:27:42;;;;;;;17.17;8.80;;;;;;;;;;5037763;28;20288;-61
2021/01/18 09:30:11;;;;;;;18.63;9.02;;;;;;;;;;5039114;28;20177;-63
2021/01/18 09:32:39;;;;;;;15.32;7.43;;;;;;;;;;5038927;28;20205;-62
2021/01/18 09:35:10;;;;;;;14.30;7.47;;;;;;;;;;5040632;28;20217;-62
2021/01/18 09:37:47;;;;;;;14.02;7.95;;;;;;;;;;5050425;28;20204;-62
2021/01/18 09:40:31;;;;;;;18.55;8.20;;;;;;;;;;5048557;28;20203;-62
2021/01/18 09:42:58;;;;;;;16.80;7.68;;;;;;;;;;5052006;28;20283;-66
2021/01/18 09:45:26;;;;;;;12.15;6.85;;;;;;;;;;5051479;28;20758;-61
2021/01/18 09:47:59;;;;;;;16.48;8.05;;;;;;;;;;5042163;28;20243;-62
2021/01/18 09:50:26;;;;;;;14.38;7.38;;;;;;;;;;5042415;28;20200;-61
2021/01/18 09:52:53;;;;;;;11.55;6.70;;;;;;;;;;5040980;28;20283;-61
2021/01/18 09:55:19;;;;;;;14.07;7.18;;;;;;;;;;5041052;28;20202;-62
2021/01/18 09:57:47;;;;;;;13.70;6.88;;;;;;;;;;5042854;28;20204;-64
2021/01/18 10:00:14;;;;;;;11.90;6.68;;;;;;;;;;5040668;28;20185;-61
2021/01/18 10:02:42;;;;;;;12.00;6.55;;;;;;;;;;5041228;28;20699;-61
2021/01/18 10:05:10;;;;;;;13.43;6.60;;;;;;;;;;5041710;28;20287;-62
2021/01/18 10:07:45;;;;;;;12.55;7.43;;;;;;;;;;5040282;28;20209;-62
2021/01/18 10:10:12;;;;;;;13.00;6.78;;;;;;;;;;5039733;28;20568;-61
2021/01/18 10:12:41;;;;;;;11.63;6.78;;;;;;;;;;5041359;28;20286;-61
2021/01/18 10:15:08;;;;;;;11.95;7.07;;;;;;;;;;5042097;28;20258;-62
2021/01/18 10:17:35;;;;;;;11.88;6.57;;;;;;;;;;5040340;28;20577;-61
2021/01/18 10:20:07;;;;;;;14.27;7.72;;;;;;;;;;5050720;28;20203;-62
2021/01/18 10:22:36;;;;;;;14.23;7.55;;;;;;;;;;5048730;28;20180;-64
2021/01/18 10:25:10;;;;;;;12.93;6.70;;;;;;;;;;5050219;28;20666;-61
2021/01/18 10:27:40;;;;;;;13.95;7.50;;;;;;;;;;5049111;28;20198;-62
2021/01/18 10:30:11;;;;;;;12.07;6.50;;;;;;;;;;5050424;28;20193;-63
2021/01/18 10:32:41;;;;;;;12.32;7.03;;;;;;;;;;5050566;28;20860;-62
2021/01/18 10:35:27;;;;;;;9.98;5.43;;;;;;;;;;5050206;28;20582;-62
2021/01/18 10:38:08;;;;;;;10.63;5.72;;;;;;;;;;5048160;28;20212;-62
2021/01/18 10:40:35;;;;;;;12.32;6.88;;;;;;;;;;5048057;28;20201;-61
2021/01/18 10:43:02;;;;;;;10.80;6.57;;;;;;;;;;5050990;28;20192;-61
2021/01/18 10:45:29;;;;;;;13.85;6.88;;;;;;;;;;5049212;28;20185;-62
2021/01/18 10:47:56;;;;;;;13.25;7.03;;;;;;;;;;5040666;28;20189;-61
2021/01/18 10:50:27;;;;;;;10.18;5.85;;;;;;;;;;5040421;28;20197;-61
2021/01/18 10:53:00;;;;;;;11.93;6.70;;;;;;;;;;5047811;28;20255;-61
2021/01/18 10:55:26;;;;;;;10.55;6.90;;;;;;;;;;5050223;28;20204;-61
2021/01/18 10:58:10;;;;;;;14.18;6.60;;;;;;;;;;5049699;28;20295;-62
2021/01/18 11:00:40;;;;;;;17.15;6.63;;;;;;;;;;5050173;28;20189;-63
2021/01/18 11:03:08;;;;;;;15.00;8.07;;;;;;;;;;5050413;28;20265;-63
2021/01/18 11:05:38;;;;;;;17.92;8.07;;;;;;;;;;5049717;28;20203;-62
2021/01/18 11:08:05;;;;;;;15.55;8.00;;;;;;;;;;5050805;28;20192;-61
2021/01/18 11:10:34;;;;;;;13.88;7.60;;;;;;;;;;5051532;28;20192;-62
2021/01/18 11:13:03;;;;;;;15.38;8.13;;;;;;;;;;5053156;28;20918;-61
2021/01/18 11:15:33;;;;;;;13.95;8.32;;;;;;;;;;5049225;28;20185;-62
2021/01/18 11:18:00;;;;;;;17.42;8.75;;;;;;;;;;5049616;28;20209;-62
2021/01/18 11:20:27;;;;;;;14.60;7.70;;;;;;;;;;5049963;28;20189;-62
2021/01/18 11:22:54;;;;;;;18.25;8.68;;;;;;;;;;5047158;28;20221;-61
2021/01/18 11:25:20;;;;;;;12.63;7.28;;;;;;;;;;5049647;28;20188;-62
2021/01/18 11:27:46;;;;;;;13.30;7.93;;;;;;;;;;5049738;28;20200;-62
2021/01/18 11:30:13;;;;;;;16.15;7.85;;;;;;;;;;5046589;28;20698;-63
2021/01/18 11:32:40;;;;;;;16.77;8.55;;;;;;;;;;5049413;28;20203;-61
2021/01/18 11:35:08;;;;;;;12.18;7.28;;;;;;;;;;5037937;28;20228;-61
2021/01/18 11:37:37;;;;;;;15.73;7.32;;;;;;;;;;5047310;28;20200;-62
2021/01/18 11:40:10;;;;;;;16.42;9.20;;;;;;;;;;5048650;28;20220;-62
2021/01/18 11:42:36;;;;;;;16.20;7.38;;;;;;;;;;5047110;28;20282;-62
2021/01/18 11:45:07;;;;;;;14.10;8.43;;;;;;;;;;5049047;28;20208;-64
2021/01/18 11:47:37;;;;;;;15.43;7.65;;;;;;;;;;5049218;28;20287;-62
2021/01/18 11:50:05;;;;;;;20.45;8.30;;;;;;;;;;5038304;28;20196;-62
2021/01/18 11:52:31;;;;;;;14.73;7.82;;;;;;;;;;5040051;28;20228;-62
2021/01/18 11:54:58;;;;;;;17.30;8.88;;;;;;;;;;5038702;28;20607;-62
2021/01/18 11:57:24;;;;;;;20.08;9.35;;;;;;;;;;5048276;28;20591;-62
2021/01/18 11:59:51;;;;;;;18.58;8.07;;;;;;;;;;5048690;28;20258;-60
2021/01/18 12:02:20;;;;;;;11.57;6.80;;;;;;;;;;5049653;28;20587;-62
2021/01/18 12:04:46;;;;;;;15.75;7.60;;;;;;;;;;5048953;28;20191;-62
2021/01/18 12:07:12;;;;;;;16.33;8.43;;;;;;;;;;5048965;28;20208;-62
2021/01/18 12:09:39;;;;;;;19.80;7.93;;;;;;;;;;5048088;28;20574;-61
2021/01/18 12:12:08;;;;;;;15.18;8.50;;;;;;;;;;5047644;28;20196;-61
2021/01/18 12:14:35;;;;;;;15.73;9.07;;;;;;;;;;5045782;28;20188;-60
2021/01/18 12:17:02;;;;;;;11.35;7.03;;;;;;;;;;5048699;28;20189;-61
2021/01/18 12:19:29;;;;;;;17.80;9.27;;;;;;;;;;5048401;28;20227;-62
2021/01/18 12:21:55;;;;;;;20.88;10.75;;;;;;;;;;5046098;28;20592;-63
2021/01/18 12:24:21;;;;;;;17.42;9.98;;;;;;;;;;5049300;28;20185;-62
2021/01/18 12:26:53;;;;;;;52.42;20.13;;;;;;;;;;5049112;28;20608;-62
2021/01/18 12:29:20;;;;;;;20.55;10.68;;;;;;;;;;5046203;28;20238;-61
2021/01/18 12:31:47;;;;;;;17.52;10.25;;;;;;;;;;5048410;28;20694;-60
2021/01/18 12:34:13;;;;;;;18.80;10.27;;;;;;;;;;5047794;28;20381;-63
2021/01/18 12:36:40;;;;;;;17.73;10.25;;;;;;;;;;5047958;28;20220;-62
2021/01/18 12:39:07;;;;;;;16.20;10.77;;;;;;;;;;5048372;28;20648;-62
2021/01/18 12:41:36;;;;;;;18.88;10.32;;;;;;;;;;5037349;28;20627;-62
2021/01/18 12:44:02;;;;;;;18.77;9.90;;;;;;;;;;5039136;28;20228;-62
2021/01/18 12:46:30;;;;;;;17.92;10.02;;;;;;;;;;5038678;28;20548;-63
2021/01/18 12:48:57;;;;;;;19.50;10.32;;;;;;;;;;5045364;28;20571;-62
2021/01/18 12:51:23;;;;;;;18.00;9.25;;;;;;;;;;5048269;28;20215;-63
2021/01/18 12:53:50;;;;;;;16.52;10.00;;;;;;;;;;5038505;28;20651;-63
2021/01/18 12:56:28;;;;;;;18.25;12.10;;;;;;;;;;5038139;28;20291;-61
2021/01/18 12:58:54;;;;;;;16.98;9.98;;;;;;;;;;5040958;28;20314;-63
2021/01/18 13:01:31;;;;;;;15.85;10.05;;;;;;;;;;5038312;28;20190;-61
2021/01/18 13:03:58;;;;;;;16.58;8.98;;;;;;;;;;5046197;28;20188;-61
2021/01/18 13:06:34;;;;;;;16.77;10.00;;;;;;;;;;5048592;28;20181;-62
2021/01/18 13:09:02;;;;;;;19.85;10.27;;;;;;;;;;5050108;28;20200;-61
2021/01/18 13:11:29;;;;;;;21.42;11.02;;;;;;;;;;5050963;28;20224;-61
2021/01/18 13:13:55;;;;;;;15.25;9.40;;;;;;;;;;5041317;28;20196;-61
2021/01/18 13:16:23;;;;;;;16.00;9.85;;;;;;;;;;5043421;28;20193;-65
2021/01/18 13:18:51;;;;;;;38.28;21.15;;;;;;;;;;5043929;28;20224;-63
2021/01/18 13:21:18;;;;;;;17.33;10.65;;;;;;;;;;5048960;28;20189;-62
2021/01/18 13:23:44;;;;;;;17.90;10.02;;;;;;;;;;5051705;28;20276;-63
2021/01/18 13:26:11;;;;;;;14.75;7.88;;;;;;;;;;5040774;28;20199;-62
2021/01/18 13:28:44;;;;;;;16.45;9.98;;;;;;;;;;5050577;28;20655;-62
2021/01/18 13:31:11;;;;;;;14.02;9.00;;;;;;;;;;5051500;28;20192;-62
2021/01/18 13:33:39;;;;;;;18.33;9.52;;;;;;;;;;5052176;28;20200;-62
2021/01/18 13:36:09;;;;;;;13.80;8.95;;;;;;;;;;5040768;28;20235;-62
2021/01/18 13:38:35;;;;;;;14.38;9.15;;;;;;;;;;5051639;28;20918;-62
2021/01/18 13:41:01;;;;;;;18.98;9.82;;;;;;;;;;5050542;28;20188;-61
2021/01/18 13:43:28;;;;;;;17.65;11.13;;;;;;;;;;5051937;28;20192;-62
2021/01/18 13:45:54;;;;;;;18.95;8.55;;;;;;;;;;5048308;28;20193;-61
2021/01/18 13:48:20;;;;;;;14.98;9.48;;;;;;;;;;5051412;28;20923;-62
2021/01/18 13:50:47;;;;;;;93.63;39.03;;;;;;;;;;5051200;28;20185;-62
2021/01/18 13:53:13;;;;;;;17.73;9.57;;;;;;;;;;5051765;28;20200;-62
2021/01/18 13:55:39;;;;;;;17.05;10.02;;;;;;;;;;5051122;28;20510;-62
2021/01/18 13:58:05;;;;;;;18.48;9.80;;;;;;;;;;5040786;28;20181;-63
2021/01/18 14:00:32;;;;;;;15.43;9.10;;;;;;;;;;5042157;28;20208;-62
2021/01/18 14:02:58;;;;;;;13.63;8.18;;;;;;;;;;5040404;28;20212;-62
2021/01/18 14:05:25;;;;;;;15.50;9.32;;;;;;;;;;5050611;28;20753;-62
2021/01/18 14:07:51;;;;;;;17.70;9.40;;;;;;;;;;5051329;28;20192;-62
2021/01/18 14:10:17;;;;;;;16.00;9.20;;;;;;;;;;5050876;28;20195;-62
2021/01/18 14:12:47;;;;;;;19.90;9.25;;;;;;;;;;5050612;28;20190;-62
2021/01/18 14:15:14;;;;;;;15.27;8.43;;;;;;;;;;5050427;28;20184;-63
2021/01/18 14:17:40;;;;;;;14.75;8.43;;;;;;;;;;5051228;28;20173;-63
2021/01/18 14:20:07;;;;;;;15.15;8.85;;;;;;;;;;5049457;28;20277;-63
2021/01/18 14:22:34;;;;;;;36.63;18.15;;;;;;;;;;5050723;28;20188;-63
2021/01/18 14:25:01;;;;;;;23.60;12.18;;;;;;;;;;5050462;28;20291;-63
2021/01/18 14:27:29;;;;;;;16.73;9.10;;;;;;;;;;5051352;28;20201;-63
2021/01/18 14:29:56;;;;;;;17.13;8.63;;;;;;;;;;5050493;28;20305;-62
2021/01/18 14:32:22;;;;;;;13.02;7.53;;;;;;;;;;5050783;28;20746;-63